Time;durP1;ratioP1;P1;durP2;ratioP2;P2;SDS_P1;SDS_P2;PMS_P1;PMS_P2;Temp;Humidity;BMP_temperature;BMP_pressure;BME280_temperature;BME280_humidity;BME280_pressure;Samples;Min_cycle;Max_cycle;Signal;HPM_P1;HPM_P2
2024/02/19 00:01:59;;;;;;;;;;;;;;;6.45;100.00;102014.66;5135357;28;19968;-80
2024/02/19 00:04:24;;;;;;;;;;;;;;;6.41;100.00;102025.78;5133595;28;19935;-80
2024/02/19 00:06:50;;;;;;;;;;;;;;;6.42;100.00;102022.97;5131185;28;19922;-81
2024/02/19 00:09:15;;;;;;;;;;;;;;;6.43;100.00;102024.66;5129475;28;19972;-80
2024/02/19 00:11:40;;;;;;;;;;;;;;;6.41;100.00;102029.31;5131591;28;19924;-80
2024/02/19 00:14:06;;;;;;;;;;;;;;;6.36;100.00;102027.06;5131273;28;19923;-80
2024/02/19 00:16:31;;;;;;;;;;;;;;;6.33;100.00;102029.19;5130171;28;19930;-80
2024/02/19 00:18:56;;;;;;;;;;;;;;;6.33;100.00;102029.19;5132546;28;19923;-80
2024/02/19 00:21:21;;;;;;;;;;;;;;;6.33;100.00;102034.53;5128193;28;19972;-80
2024/02/19 00:23:47;;;;;;;;;;;;;;;6.34;100.00;102041.56;5129679;28;19919;-80
2024/02/19 00:26:13;;;;;;;;;;;;;;;6.34;100.00;102036.22;5132140;28;19919;-80
2024/02/19 00:28:38;;;;;;;;;;;;;;;6.32;100.00;102048.88;5130897;28;20400;-80
2024/02/19 00:31:03;;;;;;;;;;;;;;;6.34;100.00;102052.25;5129816;28;20002;-80
2024/02/19 00:33:29;;;;;;;;;;;;;;;6.32;100.00;102055.06;5130880;28;20010;-80
2024/02/19 00:35:54;;;;;;;;;;;;;;;6.36;100.00;102060.97;5130443;28;19923;-80
2024/02/19 00:38:19;;;;;;;;;;;;;;;6.31;100.00;102053.38;5130472;28;19927;-80
2024/02/19 00:40:45;;;;;;;;;;;;;;;6.29;100.00;102062.53;5131596;28;19920;-80
2024/02/19 00:43:11;;;;;;;;;;;;;;;6.34;100.00;102069.13;5130690;28;19926;-80
2024/02/19 00:45:39;;;;;;;;;;;;;;;6.35;100.00;102064.66;5129408;28;19927;-80
2024/02/19 00:48:04;;;;;;;;;;;;;;;6.36;100.00;102071.66;5131795;27;19919;-80
2024/02/19 00:50:29;;;;;;;;;;;;;;;6.30;100.00;102077.59;5133816;27;19926;-80
2024/02/19 00:52:55;;;;;;;;;;;;;;;6.28;100.00;102080.38;5134182;27;19942;-80
2024/02/19 00:55:21;;;;;;;;;;;;;;;6.29;100.00;102076.72;5134687;27;19927;-80
2024/02/19 00:57:46;;;;;;;;;;;;;;;6.26;100.00;102077.03;5133888;27;19923;-80
2024/02/19 01:00:11;;;;;;;;;;;;;;;6.31;100.00;102079.28;5133637;27;19931;-80
2024/02/19 01:02:36;;;;;;;;;;;;;;;6.40;100.00;102074.94;5134613;27;19965;-80
2024/02/19 01:05:02;;;;;;;;;;;;;;;6.38;100.00;102088.41;5134285;27;19980;-80
2024/02/19 01:07:27;;;;;;;;;;;;;;;6.43;100.00;102093.38;5133180;27;20037;-80
2024/02/19 01:09:53;;;;;;;;;;;;;;;6.41;100.00;102081.97;5134734;27;19970;-80
2024/02/19 01:12:18;;;;;;;;;;;;;;;6.43;100.00;102085.34;5133375;27;19927;-80
2024/02/19 01:14:43;;;;;;;;;;;;;;;6.34;100.00;102085.19;5134364;27;19926;-80
2024/02/19 01:17:09;;;;;;;;;;;;;;;6.37;100.00;102090.25;5134420;27;19919;-80
2024/02/19 01:19:34;;;;;;;;;;;;;;;6.32;100.00;102091.66;5134202;27;20022;-80
2024/02/19 01:22:00;;;;;;;;;;;;;;;6.32;100.00;102097.03;5133835;27;19934;-80
2024/02/19 01:24:25;;;;;;;;;;;;;;;6.32;100.00;102097.84;5133296;27;19923;-80
2024/02/19 01:26:51;;;;;;;;;;;;;;;6.33;100.00;102106.72;5133647;27;19959;-80
2024/02/19 01:29:16;;;;;;;;;;;;;;;6.32;100.00;102111.22;5134200;27;19962;-80
2024/02/19 01:31:41;;;;;;;;;;;;;;;6.27;100.00;102101.94;5133787;27;19950;-80
2024/02/19 01:34:07;;;;;;;;;;;;;;;6.28;100.00;102112.47;5133787;27;20366;-80
2024/02/19 01:36:32;;;;;;;;;;;;;;;6.34;100.00;102119.13;5125652;27;20375;-80
2024/02/19 01:38:57;;;;;;;;;;;;;;;6.29;100.00;102116.84;5133988;27;19926;-80
2024/02/19 01:41:22;;;;;;;;;;;;;;;6.25;100.00;102117.25;5133822;27;19920;-80
2024/02/19 01:43:47;;;;;;;;;;;;;;;6.23;100.00;102117.41;5133452;27;20030;-80
2024/02/19 01:46:15;;;;;;;;;;;;;;;6.20;100.00;102131.88;5133292;27;20018;-80
2024/02/19 01:48:40;;;;;;;;;;;;;;;6.16;100.00;102133.16;5133944;27;19919;-80
2024/02/19 01:51:06;;;;;;;;;;;;;;;6.14;100.00;102132.44;5133627;27;20503;-80
2024/02/19 01:53:31;;;;;;;;;;;;;;;6.05;100.00;102127.88;5113617;27;20454;-80
2024/02/19 01:55:56;;;;;;;;;;;;;;;6.07;100.00;102137.50;5134845;27;20442;-80
2024/02/19 01:58:21;;;;;;;;;;;;;;;6.10;100.00;102140.84;5114510;27;20450;-80
2024/02/19 02:00:48;;;;;;;;;;;;;;;6.07;100.00;102144.66;5114460;27;20405;-80
2024/02/19 02:03:14;;;;;;;;;;;;;;;6.05;100.00;102141.25;5115037;27;19920;-80
2024/02/19 02:05:40;;;;;;;;;;;;;;;6.01;100.00;102110.41;5133311;27;19923;-79
2024/02/19 02:08:05;;;;;;;;;;;;;;;5.96;100.00;102123.34;5132700;27;19972;-80
2024/02/19 02:10:30;;;;;;;;;;;;;;;5.92;100.00;102134.28;5143184;27;19904;-79
2024/02/19 02:12:56;;;;;;;;;;;;;;;5.89;100.00;102134.56;5140177;27;20374;-80
2024/02/19 02:15:21;;;;;;;;;;;;;;;5.85;100.00;102132.28;5133382;27;19928;-80
2024/02/19 02:17:46;;;;;;;;;;;;;;;5.89;100.00;102125.72;5133844;27;19919;-80
2024/02/19 02:20:12;;;;;;;;;;;;;;;5.90;100.00;102130.91;5132602;27;19924;-80
2024/02/19 02:22:38;;;;;;;;;;;;;;;5.97;100.00;102133.06;5131410;27;19919;-80
2024/02/19 02:25:04;;;;;;;;;;;;;;;5.95;100.00;102137.69;5134196;27;20014;-80
2024/02/19 02:27:29;;;;;;;;;;;;;;;5.96;100.00;102134.03;5132909;27;20014;-79
2024/02/19 02:29:54;;;;;;;;;;;;;;;5.97;100.00;102135.72;5132033;27;19972;-80
2024/02/19 02:32:20;;;;;;;;;;;;;;;5.91;100.00;102137.13;5133270;27;19944;-80
2024/02/19 02:34:45;;;;;;;;;;;;;;;5.91;100.00;102137.94;5132731;27;20062;-80
2024/02/19 02:37:10;;;;;;;;;;;;;;;5.92;100.00;102126.28;5126149;27;20006;-80
2024/02/19 02:39:35;;;;;;;;;;;;;;;5.88;100.00;102138.22;5130708;27;19959;-80
2024/02/19 02:42:00;;;;;;;;;;;;;;;5.87;100.00;102141.03;5133454;27;19976;-80
2024/02/19 02:44:26;;;;;;;;;;;;;;;5.89;100.00;102134.56;5131702;27;19976;-80
2024/02/19 02:46:51;;;;;;;;;;;;;;;5.86;100.00;102137.50;5107201;27;20009;-80
2024/02/19 02:49:16;;;;;;;;;;;;;;;5.86;100.00;102124.13;5132576;27;19970;-80
2024/02/19 02:51:41;;;;;;;;;;;;;;;5.84;100.00;102122.59;5130898;27;19980;-80
2024/02/19 02:54:06;;;;;;;;;;;;;;;5.81;100.00;102125.50;5132118;27;19969;-80
2024/02/19 02:56:32;;;;;;;;;;;;;;;5.78;100.00;102129.31;5132699;27;19965;-80
2024/02/19 02:58:58;;;;;;;;;;;;;;;5.74;100.00;102130.56;5127279;27;19920;-80
2024/02/19 03:01:27;;;;;;;;;;;;;;;5.73;100.00;102135.06;5132869;27;19919;-80
2024/02/19 03:03:52;;;;;;;;;;;;;;;5.70;100.00;102129.13;5131872;27;19976;-80
2024/02/19 03:06:17;;;;;;;;;;;;;;;5.67;100.00;102137.41;5132508;27;19919;-80
2024/02/19 03:08:43;;;;;;;;;;;;;;;5.65;100.00;102132.19;5131573;27;19952;-80
2024/02/19 03:11:08;;;;;;;;;;;;;;;5.65;100.00;102142.06;5126994;27;19956;-80
2024/02/19 03:13:33;;;;;;;;;;;;;;;5.64;100.00;102135.84;5131965;27;20031;-80
2024/02/19 03:15:59;;;;;;;;;;;;;;;5.65;100.00;102136.72;5113669;27;19920;-80
2024/02/19 03:18:24;;;;;;;;;;;;;;;5.64;100.00;102141.19;5131830;27;20006;-80
2024/02/19 03:20:49;;;;;;;;;;;;;;;5.63;100.00;102142.16;5131269;27;20013;-80
2024/02/19 03:23:15;;;;;;;;;;;;;;;5.64;100.00;102143.03;5132244;27;19971;-80
2024/02/19 03:25:40;;;;;;;;;;;;;;;5.64;100.00;102143.03;5131424;27;20435;-80
2024/02/19 03:28:05;;;;;;;;;;;;;;;5.67;100.00;102151.63;5131944;27;19964;-80
2024/02/19 03:30:31;;;;;;;;;;;;;;;5.68;100.00;102144.44;5131975;27;19923;-80
2024/02/19 03:32:56;;;;;;;;;;;;;;;5.68;100.00;102136.41;5131280;27;20318;-80
2024/02/19 03:35:21;;;;;;;;;;;;;;;5.68;100.00;102139.94;5130963;27;20409;-80
2024/02/19 03:37:46;;;;;;;;;;;;;;;5.67;100.00;102130.25;5130738;27;19935;-80
2024/02/19 03:40:12;;;;;;;;;;;;;;;5.71;100.00;102130.81;5131510;27;19927;-80
2024/02/19 03:42:37;;;;;;;;;;;;;;;5.66;100.00;102128.56;5131433;27;19937;-80
2024/02/19 03:45:03;;;;;;;;;;;;;;;5.63;100.00;102139.50;5130893;27;19924;-80
2024/02/19 03:47:28;;;;;;;;;;;;;;;5.59;100.00;102149.59;5131276;27;19927;-80
2024/02/19 03:49:53;;;;;;;;;;;;;;;5.58;100.00;102144.38;5131652;27;20064;-81
2024/02/19 03:52:19;;;;;;;;;;;;;;;5.60;100.00;102143.28;5131640;27;20022;-80
2024/02/19 03:54:44;;;;;;;;;;;;;;;5.64;100.00;102132.34;5130512;27;20029;-80
2024/02/19 03:57:09;;;;;;;;;;;;;;;5.62;100.00;102137.81;5130541;27;19924;-80
2024/02/19 03:59:35;;;;;;;;;;;;;;;5.66;100.00;102149.06;5131416;27;19922;-80
2024/02/19 04:02:00;;;;;;;;;;;;;;;5.67;100.00;102148.09;5130950;28;19927;-80
2024/02/19 04:04:25;;;;;;;;;;;;;;;5.69;100.00;102148.81;5130684;28;19919;-80
2024/02/19 04:06:50;;;;;;;;;;;;;;;5.72;100.00;102151.22;5130347;28;19930;-80
2024/02/19 04:09:16;;;;;;;;;;;;;;;5.74;100.00;102158.09;5130627;28;19927;-80
2024/02/19 04:11:41;;;;;;;;;;;;;;;5.75;100.00;102153.63;5130985;28;19930;-79
2024/02/19 04:14:06;;;;;;;;;;;;;;;5.77;100.00;102152.50;5130872;28;19935;-79
2024/02/19 04:16:31;;;;;;;;;;;;;;;5.79;100.00;102156.88;5132042;28;20023;-80
2024/02/19 04:18:56;;;;;;;;;;;;;;;5.83;100.00;102158.31;5128187;28;20013;-80
2024/02/19 04:21:22;;;;;;;;;;;;;;;5.85;100.00;102159.84;5140606;28;19963;-80
2024/02/19 04:23:47;;;;;;;;;;;;;;;5.82;100.00;102160.16;5134540;27;19919;-80
2024/02/19 04:26:12;;;;;;;;;;;;;;;5.84;100.00;102160.81;5136151;27;19919;-80
2024/02/19 04:28:37;;;;;;;;;;;;;;;5.88;100.00;102164.94;5129350;27;19931;-80
2024/02/19 04:31:03;;;;;;;;;;;;;;;5.86;100.00;102161.53;5132127;27;19919;-80
2024/02/19 04:33:28;;;;;;;;;;;;;;;5.85;100.00;102161.69;5135105;27;19919;-80
2024/02/19 04:35:53;;;;;;;;;;;;;;;5.85;100.00;102170.53;5133752;27;19926;-80
2024/02/19 04:38:18;;;;;;;;;;;;;;;5.85;100.00;102159.03;5135474;27;19915;-78
2024/02/19 04:40:43;;;;;;;;;;;;;;;5.88;100.00;102159.59;5135853;27;19919;-78
2024/02/19 04:43:09;;;;;;;;;;;;;;;5.86;100.00;102152.69;5133835;27;19919;-78
2024/02/19 04:45:34;;;;;;;;;;;;;;;5.89;100.00;102155.94;5133250;27;19919;-78
2024/02/19 04:47:59;;;;;;;;;;;;;;;5.90;100.00;102165.66;5135499;27;19942;-78
2024/02/19 04:50:24;;;;;;;;;;;;;;;5.88;100.00;102162.25;5133673;27;19927;-78
2024/02/19 04:52:49;;;;;;;;;;;;;;;5.87;100.00;102162.41;5135261;27;19942;-78
2024/02/19 04:55:15;;;;;;;;;;;;;;;5.90;100.00;102162.16;5134836;27;19973;-79
2024/02/19 04:57:40;;;;;;;;;;;;;;;5.92;100.00;102158.34;5133025;27;20006;-79
2024/02/19 05:00:05;;;;;;;;;;;;;;;5.94;100.00;102166.22;5134756;27;20542;-81
2024/02/19 05:02:31;;;;;;;;;;;;;;;5.98;100.00;102161.47;5134991;27;20274;-85
2024/02/19 05:04:57;;;;;;;;;;;;;;;5.99;100.00;102171.19;5134058;27;20080;-80
2024/02/19 05:07:22;;;;;;;;;;;;;;;5.98;100.00;102158.81;5134222;27;20369;-79
2024/02/19 05:09:47;;;;;;;;;;;;;;;6.00;100.00;102164.91;5135452;27;20355;-80
2024/02/19 05:12:12;;;;;;;;;;;;;;;6.01;100.00;102163.88;5132236;27;20416;-80
2024/02/19 05:14:38;;;;;;;;;;;;;;;5.95;100.00;102172.44;5133919;27;19934;-81
2024/02/19 05:17:03;;;;;;;;;;;;;;;5.91;100.00;102169.19;5117284;27;19955;-80
2024/02/19 05:19:28;;;;;;;;;;;;;;;5.90;100.00;102162.97;5133418;27;19916;-81
2024/02/19 05:21:54;;;;;;;;;;;;;;;5.94;100.00;102160.88;5134031;27;20355;-81
2024/02/19 05:24:19;;;;;;;;;;;;;;;5.95;100.00;102165.25;5135120;27;19922;-81
2024/02/19 05:26:45;;;;;;;;;;;;;;;6.00;100.00;102156.88;5133485;27;20122;-81
2024/02/19 05:29:10;;;;;;;;;;;;;;;5.97;100.00;102162.44;5134458;27;19951;-81
2024/02/19 05:31:37;;;;;;;;;;;;;;;6.09;100.00;102155.22;5134407;27;19942;-80
2024/02/19 05:34:03;;;;;;;;;;;;;;;6.11;100.00;102158.56;5134034;27;19970;-81
2024/02/19 05:36:28;;;;;;;;;;;;;;;6.21;100.00;102138.91;5134332;27;19955;-81
2024/02/19 05:38:53;;;;;;;;;;;;;;;6.11;100.00;102154.09;5134570;27;20015;-80
2024/02/19 05:41:19;;;;;;;;;;;;;;;6.01;100.00;102158.53;5126728;27;19923;-81
2024/02/19 05:43:46;;;;;;;;;;;;;;;6.00;100.00;102156.88;5132842;27;19933;-80
2024/02/19 05:46:11;;;;;;;;;;;;;;;6.04;100.00;102147.59;5133462;27;19924;-80
2024/02/19 05:48:37;;;;;;;;;;;;;;;6.04;100.00;102153.78;5133971;27;19957;-80
2024/02/19 05:51:03;;;;;;;;;;;;;;;6.04;100.00;102143.09;5133818;27;19998;-80
2024/02/19 05:53:29;;;;;;;;;;;;;;;5.99;100.00;102147.13;5132839;27;19923;-80
2024/02/19 05:55:54;;;;;;;;;;;;;;;6.04;100.00;102158.28;5134450;27;19920;-80
2024/02/19 05:58:19;;;;;;;;;;;;;;;6.07;100.00;102158.00;5134312;27;20352;-80
2024/02/19 06:00:44;;;;;;;;;;;;;;;6.10;100.00;102162.22;5133864;27;20294;-81
2024/02/19 06:03:09;;;;;;;;;;;;;;;6.11;100.00;102166.59;5134459;27;20260;-80
2024/02/19 06:05:35;;;;;;;;;;;;;;;6.04;100.00;102164.47;5133464;27;20399;-80
2024/02/19 06:08:00;;;;;;;;;;;;;;;6.09;100.00;102166.75;5133511;27;20328;-80
2024/02/19 06:10:25;;;;;;;;;;;;;;;6.13;100.00;102162.84;5133904;27;20333;-82
2024/02/19 06:12:52;;;;;;;;;;;;;;;6.11;100.00;102169.28;5113929;27;19920;-80
2024/02/19 06:15:17;;;;;;;;;;;;;;;6.07;100.00;102172.25;5133094;27;20018;-81
2024/02/19 06:17:42;;;;;;;;;;;;;;;6.14;100.00;102164.53;5132947;27;19972;-80
2024/02/19 06:20:08;;;;;;;;;;;;;;;6.18;100.00;102167.75;5133069;27;19945;-80
2024/02/19 06:22:33;;;;;;;;;;;;;;;6.10;100.00;102168.44;5132677;27;19946;-80
2024/02/19 06:24:58;;;;;;;;;;;;;;;6.13;100.00;102160.16;5133487;27;19963;-80
2024/02/19 06:27:23;;;;;;;;;;;;;;;6.19;100.00;102158.75;5132723;27;19962;-80
2024/02/19 06:29:48;;;;;;;;;;;;;;;6.19;100.00;102151.56;5132508;27;19972;-80
2024/02/19 06:32:14;;;;;;;;;;;;;;;6.31;100.00;102155.00;5134154;27;19939;-80
2024/02/19 06:34:40;;;;;;;;;;;;;;;6.28;100.00;102154.44;5132154;27;19972;-80
2024/02/19 06:37:06;;;;;;;;;;;;;;;6.15;100.00;102163.53;5132872;27;19919;-80
2024/02/19 06:39:31;;;;;;;;;;;;;;;6.17;100.00;102169.59;5133772;27;19930;-80
2024/02/19 06:41:57;;;;;;;;;;;;;;;6.13;100.00;102170.84;5131746;27;19923;-80
2024/02/19 06:44:22;;;;;;;;;;;;;;;6.13;100.00;102173.53;5132905;27;20006;-80
2024/02/19 06:46:48;;;;;;;;;;;;;;;6.06;100.00;102172.34;5129009;27;20424;-80
2024/02/19 06:49:14;;;;;;;;;;;;;;;6.07;100.00;102179.41;5111865;27;19926;-80
2024/02/19 06:51:39;;;;;;;;;;;;;;;6.08;100.00;102178.41;5132798;27;19998;-81
2024/02/19 06:54:05;;;;;;;;;;;;;;;6.06;100.00;102175.03;5133983;27;20363;-81
2024/02/19 06:56:30;;;;;;;;;;;;;;;6.09;100.00;102176.63;5130879;27;19944;-81
2024/02/19 06:58:55;;;;;;;;;;;;;;;6.08;100.00;102173.06;5132139;27;20035;-81
2024/02/19 07:01:21;;;;;;;;;;;;;;;6.23;100.00;102173.56;5133422;27;19919;-80
2024/02/19 07:03:46;;;;;;;;;;;;;;;6.25;100.00;102174.28;5131406;27;19945;-80
2024/02/19 07:06:11;;;;;;;;;;;;;;;6.33;100.00;102181.63;5131824;27;19927;-80
2024/02/19 07:08:36;;;;;;;;;;;;;;;6.26;100.00;102183.13;5132429;27;20009;-80
2024/02/19 07:11:01;;;;;;;;;;;;;;;6.22;100.00;102182.56;5113675;27;20006;-80
2024/02/19 07:13:27;;;;;;;;;;;;;;;6.24;100.00;102185.94;5132314;27;19920;-80
2024/02/19 07:15:52;;;;;;;;;;;;;;;6.30;100.00;102189.91;5132551;27;19952;-80
2024/02/19 07:18:17;;;;;;;;;;;;;;;6.32;100.00;102183.44;5131949;27;19915;-79
2024/02/19 07:20:42;;;;;;;;;;;;;;;6.34;100.00;102183.31;5126998;27;19985;-80
2024/02/19 07:23:08;;;;;;;;;;;;;;;6.46;100.00;102174.19;5133206;27;19927;-80
2024/02/19 07:25:33;;;;;;;;;;;;;;;6.43;100.00;102182.47;5131755;27;20451;-80
2024/02/19 07:27:58;;;;;;;;;;;;;;;6.56;100.00;102178.69;5132231;27;20363;-80
2024/02/19 07:30:23;;;;;;;;;;;;;;;6.46;100.00;102179.53;5132612;27;19922;-80
2024/02/19 07:32:48;;;;;;;;;;;;;;;6.59;100.00;102171.25;5131451;27;19948;-80
2024/02/19 07:35:14;;;;;;;;;;;;;;;6.56;100.00;102166.19;5132220;27;19939;-80
2024/02/19 07:37:39;;;;;;;;;;;;;;;6.64;100.00;102163.66;5113963;27;19919;-80
2024/02/19 07:40:06;;;;;;;;;;;;;;;6.65;100.00;102162.66;5131852;27;20003;-80
2024/02/19 07:42:33;;;;;;;;;;;;;;;6.73;100.00;102163.81;5131688;27;19954;-80
2024/02/19 07:44:59;;;;;;;;;;;;;;;6.78;100.00;102167.75;5132193;27;19972;-80
2024/02/19 07:47:24;;;;;;;;;;;;;;;6.78;100.00;102173.13;5131964;27;19966;-79
2024/02/19 07:49:49;;;;;;;;;;;;;;;6.89;100.00;102171.28;5131694;27;19957;-80
2024/02/19 07:52:14;;;;;;;;;;;;;;;6.92;100.00;102171.88;5131393;27;19920;-80
2024/02/19 07:54:40;;;;;;;;;;;;;;;6.90;100.00;102172.97;5132259;27;19919;-81
2024/02/19 07:57:06;;;;;;;;;;;;;;;6.86;100.00;102179.63;5127998;27;19931;-80
2024/02/19 07:59:31;;;;;;;;;;;;;;;6.93;100.00;102183.41;5130432;27;20347;-79
2024/02/19 08:02:00;;;;;;;;;;;;;;;7.03;100.00;102178.91;5128965;27;19934;-79
2024/02/19 08:04:27;;;;;;;;;;;;;;;7.31;100.00;102184.41;5130059;28;19934;-81
2024/02/19 08:06:52;;;;;;;;;;;;;;;7.21;100.00;102183.56;5130975;28;19946;-80
2024/02/19 08:09:17;;;;;;;;;;;;;;;7.19;100.00;102180.19;5132082;28;20335;-80
2024/02/19 08:11:43;;;;;;;;;;;;;;;7.40;100.00;102175.53;5131290;28;19927;-80
2024/02/19 08:14:08;;;;;;;;;;;;;;;7.48;100.00;102179.28;5131121;28;19919;-80
2024/02/19 08:16:33;;;;;;;;;;;;;;;7.54;100.00;102184.09;5131899;28;20534;-83
2024/02/19 08:18:58;;;;;;;;;;;;;;;7.59;100.00;102189.84;5131986;28;20374;-83
2024/02/19 08:21:24;;;;;;;;;;;;;;;7.41;100.00;102179.84;5131025;28;20378;-83
2024/02/19 08:23:49;;;;;;;;;;;;;;;7.64;100.00;102190.25;5131711;28;19926;-83
2024/02/19 08:26:14;;;;;;;;;;;;;;;7.61;100.00;102190.56;5130911;28;19925;-86
2024/02/19 08:28:39;;;;;;;;;;;;;;;7.72;100.00;102190.41;5132788;28;19919;-84
2024/02/19 08:31:05;;;;;;;;;;;;;;;7.84;100.00;102190.22;5132252;28;20007;-84
2024/02/19 08:33:30;;;;;;;;;;;;;;;7.74;100.00;102190.25;5131419;28;19919;-84
2024/02/19 08:35:55;;;;;;;;;;;;;;;7.79;100.00;102187.13;5124253;28;19920;-84
2024/02/19 08:38:20;;;;;;;;;;;;;;;8.05;100.00;102184.63;5131509;28;19927;-83
2024/02/19 08:40:46;;;;;;;;;;;;;;;7.94;100.00;102182.16;5130842;28;19923;-82
2024/02/19 08:43:11;;;;;;;;;;;;;;;7.80;100.00;102183.44;5130336;28;19919;-83
2024/02/19 08:45:39;;;;;;;;;;;;;;;7.82;100.00;102176.97;5132456;28;20340;-83
2024/02/19 08:48:08;;;;;;;;;;;;;;;7.96;100.00;102178.31;5130828;28;19920;-84
2024/02/19 08:50:34;;;;;;;;;;;;;;;8.12;100.00;102179.56;5130933;28;20014;-83
2024/02/19 08:52:59;;;;;;;;;;;;;;;8.22;100.00;102185.69;5132533;28;19966;-84
2024/02/19 08:55:24;;;;;;;;;;;;;;;8.21;100.00;102192.06;5130735;28;19965;-83
2024/02/19 08:57:50;;;;;;;;;;;;;;;8.26;100.00;102194.28;5131066;28;19924;-83
2024/02/19 09:00:15;;;;;;;;;;;;;;;8.14;100.00;102186.44;5131439;28;20374;-83
2024/02/19 09:02:42;;;;;;;;;;;;;;;7.97;100.00;102184.53;5129956;28;20506;-84
2024/02/19 09:05:07;;;;;;;;;;;;;;;7.83;100.00;102191.22;5130852;28;19927;-84
2024/02/19 09:07:32;;;;;;;;;;;;;;;7.88;100.00;102191.63;5132075;28;19927;-84
2024/02/19 09:09:58;;;;;;;;;;;;;;;7.99;100.00;102188.75;5132107;27;20016;-83
2024/02/19 09:12:24;;;;;;;;;;;;;;;7.91;100.00;102193.16;5134663;27;19920;-84
2024/02/19 09:14:50;;;;;;;;;;;;;;;7.95;100.00;102173.94;5135887;27;20002;-83
2024/02/19 09:17:15;;;;;;;;;;;;;;;8.21;100.00;102175.97;5134064;27;20443;-84
2024/02/19 09:19:40;;;;;;;;;;;;;;;8.02;100.00;102180.41;5133534;27;19923;-84
2024/02/19 09:22:07;;;;;;;;;;;;;;;7.92;100.00;102176.94;5135142;27;19926;-84
2024/02/19 09:24:32;;;;;;;;;;;;;;;7.94;100.00;102174.09;5134170;27;19927;-84
2024/02/19 09:26:58;;;;;;;;;;;;;;;8.11;100.00;102178.69;5134922;27;20377;-83
2024/02/19 09:29:24;;;;;;;;;;;;;;;8.09;100.00;102177.16;5135167;27;19954;-84
2024/02/19 09:31:49;;;;;;;;;;;;;;;8.27;100.00;102183.44;5133887;27;19930;-84
2024/02/19 09:34:14;;;;;;;;;;;;;;;8.20;100.00;102179.63;5134212;27;19919;-84
2024/02/19 09:36:42;;;;;;;;;;;;;;;8.22;100.00;102172.28;5134916;27;19919;-83
2024/02/19 09:39:07;;;;;;;;;;;;;;;8.26;100.00;102176.38;5133939;27;19920;-84
2024/02/19 09:41:32;;;;;;;;;;;;;;;8.32;100.00;102183.81;5133787;27;20406;-84
2024/02/19 09:43:57;;;;;;;;;;;;;;;8.32;100.00;102183.81;5134344;27;20394;-83
2024/02/19 09:46:24;;;;;;;;;;;;;;;8.39;100.00;102173.31;5133470;27;20393;-84
2024/02/19 09:48:49;;;;;;;;;;;;;;;8.35;100.00;102172.78;5125353;27;19972;-84
2024/02/19 09:51:16;;;;;;;;;;;;;;;8.35;100.00;102172.78;5134262;27;19919;-83
2024/02/19 09:53:41;;;;;;;;;;;;;;;8.49;100.00;102174.16;5132827;27;19923;-83
2024/02/19 09:56:08;;;;;;;;;;;;;;;8.45;100.00;102174.59;5133694;27;19931;-83
2024/02/19 09:58:33;;;;;;;;;;;;;;;8.54;100.00;102176.38;5116234;27;19941;-83
2024/02/19 10:00:58;;;;;;;;;;;;;;;8.69;100.00;102184.78;5115556;27;20371;-83
2024/02/19 10:03:23;;;;;;;;;;;;;;;8.61;100.00;102180.16;5133296;27;19919;-83
2024/02/19 10:05:49;;;;;;;;;;;;;;;8.50;100.00;102185.72;5133129;27;19942;-84
2024/02/19 10:08:14;;;;;;;;;;;;;;;8.51;100.00;102187.41;5134380;27;20008;-83
2024/02/19 10:10:41;;;;;;;;;;;;;;;8.44;100.00;102183.63;5130329;27;20244;-83
2024/02/19 10:13:09;;;;;;;;;;;;;;;8.51;100.00;102176.69;5133107;27;19919;-84
2024/02/19 10:15:34;;;;;;;;;;;;;;;8.63;100.00;102175.50;5134387;27;19920;-83
2024/02/19 10:18:00;;;;;;;;;;;;;;;8.57;100.00;102170.72;5133488;27;19995;-83
2024/02/19 10:20:25;;;;;;;;;;;;;;;8.61;100.00;102177.47;5132211;27;20015;-83
2024/02/19 10:22:50;;;;;;;;;;;;;;;8.53;100.00;102184.59;5133925;27;19923;-83
2024/02/19 10:25:16;;;;;;;;;;;;;;;8.52;100.00;102181.06;5133631;27;19919;-83
2024/02/19 10:27:43;;;;;;;;;;;;;;;8.52;100.00;102170.31;5132454;27;19964;-84
2024/02/19 10:30:12;;;;;;;;;;;;;;;8.39;100.00;102172.50;5134354;27;19926;-84
2024/02/19 10:32:40;;;;;;;;;;;;;;;8.39;100.00;102159.06;5134087;27;19927;-84
2024/02/19 10:35:06;;;;;;;;;;;;;;;8.41;100.00;102167.81;5132295;27;20019;-84
2024/02/19 10:37:35;;;;;;;;;;;;;;;8.49;100.00;102170.59;5133518;27;20399;-84
2024/02/19 10:40:00;;;;;;;;;;;;;;;8.52;100.00;102167.63;5133041;27;19920;-84
2024/02/19 10:42:26;;;;;;;;;;;;;;;8.72;100.00;102172.88;5133391;27;20303;-84
2024/02/19 10:44:53;;;;;;;;;;;;;;;8.69;100.00;102163.28;5143725;27;19951;-84
2024/02/19 10:47:18;;;;;;;;;;;;;;;8.82;100.00;102168.31;5136432;27;19987;-84
2024/02/19 10:49:47;;;;;;;;;;;;;;;8.75;100.00;102161.84;5114136;27;20367;-84
2024/02/19 10:52:12;;;;;;;;;;;;;;;8.78;100.00;102161.53;5134138;27;19923;-84
2024/02/19 10:54:40;;;;;;;;;;;;;;;8.81;100.00;102161.25;5132769;27;20378;-84
2024/02/19 10:57:08;;;;;;;;;;;;;;;8.87;100.00;102157.09;5113276;27;19975;-84
2024/02/19 10:59:34;;;;;;;;;;;;;;;9.10;100.00;102162.84;5134378;27;19921;-84
2024/02/19 11:02:05;;;;;;;;;;;;;;;9.03;100.00;102154.56;5132089;27;19923;-84
2024/02/19 11:04:32;;;;;;;;;;;;;;;9.20;100.00;102158.19;5123593;27;20059;-84
2024/02/19 11:06:57;;;;;;;;;;;;;;;9.11;100.00;102156.47;5133472;27;19923;-84
2024/02/19 11:09:23;;;;;;;;;;;;;;;9.02;100.00;102143.94;5131586;27;19923;-84
2024/02/19 11:11:51;;;;;;;;;;;;;;;9.07;100.00;102147.00;5132619;27;19919;-84
2024/02/19 11:14:20;;;;;;;;;;;;;;;9.02;100.00;102152.00;5133597;27;19949;-85
2024/02/19 11:16:46;;;;;;;;;;;;;;;9.29;100.00;102147.53;5130974;27;19927;-84
2024/02/19 11:19:11;;;;;;;;;;;;;;;9.21;100.00;102151.84;5113163;27;19919;-84
2024/02/19 11:21:36;;;;;;;;;;;;;;;9.06;100.00;102148.00;5133919;27;19919;-84
2024/02/19 11:24:02;;;;;;;;;;;;;;;9.19;100.00;102144.94;5131383;27;19927;-83
2024/02/19 11:26:28;;;;;;;;;;;;;;;9.08;100.00;102146.88;5131865;27;19930;-84
2024/02/19 11:28:53;;;;;;;;;;;;;;;9.05;100.00;102135.56;5132730;27;19927;-83
2024/02/19 11:31:19;;;;;;;;;;;;;;;9.04;100.00;102139.25;5131421;27;20359;-84
2024/02/19 11:33:47;;;;;;;;;;;;;;;8.86;100.00;102131.22;5131891;27;20276;-84
2024/02/19 11:36:12;;;;;;;;;;;;;;;8.97;100.00;102122.09;5132422;27;19923;-84
2024/02/19 11:38:38;;;;;;;;;;;;;;;9.02;100.00;102127.81;5131265;27;20308;-84
2024/02/19 11:41:04;;;;;;;;;;;;;;;8.84;100.00;102117.13;5132178;27;19928;-84
2024/02/19 11:43:30;;;;;;;;;;;;;;;8.84;100.00;102120.63;5132409;27;20307;-83
2024/02/19 11:45:55;;;;;;;;;;;;;;;8.94;100.00;102102.59;5105390;28;19920;-83
2024/02/19 11:48:20;;;;;;;;;;;;;;;9.07;100.00;102109.41;5095732;28;19921;-83
2024/02/19 11:50:45;;;;;;;;;;;;;;;9.00;100.00;102111.06;5092277;28;19935;-83
2024/02/19 11:53:11;;;;;;;;;;;;;;;9.10;100.00;102106.41;5105133;28;19924;-83
2024/02/19 11:55:38;;;;;;;;;;;;;;;9.00;100.00;102106.50;5102034;28;19927;-83
2024/02/19 11:58:05;;;;;;;;;;;;;;;9.00;100.00;102101.13;5091876;28;19920;-83
2024/02/19 12:00:30;;;;;;;;;;;;;;;8.94;100.00;102099.06;5092757;28;19955;-83
2024/02/19 12:02:56;;;;;;;;;;;;;;;8.99;100.00;102094.06;5099165;28;19959;-84
2024/02/19 12:05:21;;;;;;;;;;;;;;;9.01;100.00;102091.22;5097858;28;19989;-84
2024/02/19 12:07:50;;;;;;;;;;;;;;;8.89;100.00;102087.97;5106455;28;19951;-84
2024/02/19 12:10:16;;;;;;;;;;;;;;;9.03;100.00;102089.22;5085403;28;19924;-82
2024/02/19 12:12:44;;;;;;;;;;;;;;;8.98;100.00;102089.69;5087389;28;20593;-83
2024/02/19 12:15:10;;;;;;;;;;;;;;;8.96;100.00;102080.94;5085373;28;19932;-84
2024/02/19 12:17:36;;;;;;;;;;;;;;;9.00;100.00;102084.19;5090089;28;19920;-85
2024/02/19 12:20:01;;;;;;;;;;;;;;;9.02;100.00;102083.03;5090849;28;19943;-84
2024/02/19 12:22:27;;;;;;;;;;;;;;;8.89;100.00;102074.53;5099651;28;19933;-84
2024/02/19 12:24:53;;;;;;;;;;;;;;;8.79;100.00;102072.75;5099554;28;20355;-84
2024/02/19 12:27:21;;;;;;;;;;;;;;;8.92;100.00;102069.69;5104180;28;19926;-84